• Join FlightAware (Why Join?)
  • Login
  • US Flag 
Trick or treat! (Boo!!) 
06:57PM EDT


 

Airport Tracker/Info


-or-


 

Live Flight TrackerFlight Track Log ✈ CTL13 ✈ 03-May-2013 ✈ KBKL - KEYE

Flight Track Log - Related Links

Times and Time Zones

All times are in EDT time to prevent confusion due to time zone crossing. See the CTL13 flight status page for this flight to view local times or setup timezone preferences in your user account.

Time Position Orientation Groundspeed Altitude Reporting Facility
EDT Latitude Longitude Course Direction KTS MPH feet Rate Location/Type
07:11PM 41.5275 -81.6675 345° North 125 144 1,100  Level Cleveland Center
07:12PM 41.5753 -81.6850 345° North 180 207 1,800 840 Climbing Cleveland Center
07:13PM 41.6189 -81.7108 336° Northwest 145 167 3,000 1,080 Climbing Cleveland Center
07:14PM 41.6392 -81.7472 307° West 144 166 4,000 780 Climbing Cleveland Center
07:15PM 41.6281 -81.8194 258° West 152 175 4,900 720 Climbing Cleveland Center
07:16PM 41.6236 -81.8553 261° West 156 180 5,500 660 Climbing Cleveland Center
07:17PM 41.6167 -81.9164 261° West 153 176 6,100 300 Climbing Cleveland Center
07:18PM 41.6075 -81.9717 258° West 183 211 6,100 360 Level Cleveland Center
07:19PM 41.5839 -82.0350 244° Southwest 150 173 6,900 660 Climbing Cleveland Center
07:20PM 41.5644 -82.0761 238° Southwest 145 167 7,500 540 Climbing Cleveland Center
07:21PM 41.5453 -82.1258 243° Southwest 145 167 8,000 240 Climbing Cleveland Center
07:22PM 41.5236 -82.1722 238° Southwest 153 176 8,100  Climbing Cleveland Center
07:23PM 41.5000 -82.2244 239° Southwest 165 190 8,100  Level Cleveland Center
07:24PM 41.4783 -82.2764 241° Southwest 159 183 8,100 -60 Level Cleveland Center
07:26PM 41.4440 -82.3419 235° Southwest  Level FlightAware Approximate
07:33PM 41.2715 -82.6864 240° Southwest  Level FlightAware Approximate
07:34PM 41.2492 -82.7374 240° Southwest  Level FlightAware Approximate
07:35PM 41.2268 -82.7884 240° Southwest  Level FlightAware Approximate
07:36PM 41.2043 -82.8393 240° Southwest  Level FlightAware Approximate
07:37PM 41.1819 -82.8902 240° Southwest  Level FlightAware Approximate
07:38PM 41.1594 -82.9410 240° Southwest  Level FlightAware Approximate
07:39PM 41.1369 -82.9919 240° Southwest  Level FlightAware Approximate
07:40PM 41.1128 -83.0413 237° Southwest  Level FlightAware Approximate
07:41PM 41.0883 -83.0904 237° Southwest  Level FlightAware Approximate
07:42PM 41.0638 -83.1395 236° Southwest  Level FlightAware Approximate
07:43PM 41.0392 -83.1885 236° Southwest  Level FlightAware Approximate
07:44PM 41.0147 -83.2375 236° Southwest  Level FlightAware Approximate
07:45PM 40.9901 -83.2865 236° Southwest  Level FlightAware Approximate
07:45PM 41.0139 -83.3300 239° Southwest 159 183 8,000  Level Indianapolis Center
07:46PM 40.9683 -83.3376 242° Southwest  Level FlightAware Approximate
07:46PM 40.9897 -83.3794 237° Southwest 159 183 8,000  Level Indianapolis Center
07:47PM 40.9473 -83.3894 239° Southwest  Level FlightAware Approximate
07:47PM 40.9669 -83.4300 239° Southwest 158 182 7,900  Level Indianapolis Center
07:48PM 40.9245 -83.4398 239° Southwest  Level FlightAware Approximate
07:48PM 40.9425 -83.4792 237° Southwest 158 182 7,900  Level Indianapolis Center
07:49PM 40.9016 -83.4902 239° Southwest  Level FlightAware Approximate
07:49PM 40.9161 -83.5333 237° Southwest 157 181 8,000  Level Indianapolis Center
07:50PM 40.8788 -83.5405 239° Southwest  Level FlightAware Approximate
07:50PM 40.8911 -83.5822 236° Southwest 158 182 7,900  Level Indianapolis Center
07:51PM 40.8559 -83.5908 239° Southwest  Level FlightAware Approximate
07:51PM 40.8681 -83.6317 238° Southwest 158 182 7,900  Level Indianapolis Center
07:52PM 40.8444 -83.6817 238° Southwest 158 182 7,900  Level Indianapolis Center
07:53PM 40.8206 -83.7319 238° Southwest 160 184 8,000  Climbing Indianapolis Center
07:54PM 40.7953 -83.7819 236° Southwest 162 186 8,000  Level Indianapolis Center
07:55PM 40.7725 -83.8322 239° Southwest 160 184 8,000  Level Indianapolis Center
07:57PM 40.7483 -83.8822 237° Southwest 160 184 8,000  Level Indianapolis Center
07:58PM 40.7247 -83.9322 238° Southwest 160 184 8,000  Level Indianapolis Center
07:59PM 40.7008 -83.9819 238° Southwest 160 184 8,000  Level Indianapolis Center
08:00PM 40.6781 -84.0331 240° Southwest 160 184 8,000  Level Indianapolis Center
08:00PM 40.6656 -84.0533 231° Southwest 161 185 8,000 60 Level Indianapolis Center
08:01PM 40.6475 -84.0883 236° Southwest 160 184 8,100  Climbing Indianapolis Center
08:01PM 40.6364 -84.1072 232° Southwest 158 182 8,000 -120 Descending Indianapolis Center
08:02PM 40.6225 -84.1361 238° Southwest 159 183 8,000  Level Indianapolis Center
08:02PM 40.6094 -84.1558 229° Southwest 162 186 8,000 60 Level Indianapolis Center
08:03PM 40.5950 -84.1844 236° Southwest 161 185 8,100 60 Climbing Indianapolis Center
08:03PM 40.5847 -84.2050 237° Southwest 162 186 8,100  Level Indianapolis Center
08:04PM 40.5692 -84.2344 235° Southwest 162 186 8,100  Level Indianapolis Center
08:04PM 40.5581 -84.2533 232° Southwest 163 188 8,100  Level Indianapolis Center
08:05PM 40.5442 -84.2844 240° Southwest 163 188 8,100 -120 Level Indianapolis Center
08:05PM 40.5331 -84.3022 231° Southwest 163 188 8,000  Descending Indianapolis Center
08:06PM 40.5178 -84.3336 237° Southwest 163 188 8,100 60 Climbing Indianapolis Center
08:06PM 40.5058 -84.3564 235° Southwest 161 185 8,100 -120 Level Indianapolis Center
08:07PM 40.4914 -84.3822 234° Southwest 163 188 8,000 -120 Descending Indianapolis Center
08:07PM 40.4836 -84.3972 236° Southwest 163 188 8,000  Level Indianapolis Center
08:08PM 40.4650 -84.4314 234° Southwest 163 188 8,000 60 Level Indianapolis Center
08:08PM 40.4539 -84.4533 236° Southwest 164 189 8,100  Climbing Indianapolis Center
08:09PM 40.4386 -84.4803 233° Southwest 163 188 8,000 -60 Descending Indianapolis Center
08:10PM 40.4125 -84.5311 236° Southwest 166 191 8,000  Level Indianapolis Center
08:11PM 40.3861 -84.5814 235° Southwest 166 191 8,000  Level Indianapolis Center
08:12PM 40.3567 -84.6381 236° Southwest 162 186 8,000  Level Indianapolis Center
08:13PM 40.3297 -84.6867 234° Southwest 162 186 8,000  Level Indianapolis Center
08:14PM 40.3025 -84.7344 233° Southwest 162 186 8,000  Level Indianapolis Center
08:14PM 40.2958 -84.7467 234° Southwest 160 184 8,000  Level Indianapolis Center
08:15PM 40.2775 -84.7836 237° Southwest 162 186 8,000  Level Indianapolis Center
08:15PM 40.2686 -84.7975 230° Southwest 165 190 8,000  Level Indianapolis Center
08:16PM 40.2519 -84.8325 238° Southwest 162 186 8,000  Level Indianapolis Center
08:17PM 40.2258 -84.8811 235° Southwest 162 186 8,000  Level Indianapolis Center
08:18PM 40.2025 -84.9314 239° Southwest 159 183 8,000  Level Indianapolis Center
08:19PM 40.1750 -84.9781 232° Southwest 160 184 8,000  Level Indianapolis Center
08:20PM 40.1494 -85.0228 233° Southwest 156 180 8,000  Level Indianapolis Center
08:21PM 40.1244 -85.0683 234° Southwest 155 178 8,000  Level Indianapolis Center
08:22PM 40.0975 -85.1150 233° Southwest 159 183 8,000  Level Indianapolis Center
08:23PM 40.0650 -85.1708 233° Southwest 161 185 8,000  Level Indianapolis Center
08:24PM 40.0494 -85.2261 250° West 164 189 8,100  Climbing Indianapolis Center
08:25PM 40.0389 -85.2864 257° West 169 194 8,000 -60 Descending Indianapolis Center
08:26PM 40.0281 -85.3458 257° West 170 196 8,000  Level Indianapolis Center
08:27PM 40.0178 -85.4067 258° West 171 197 8,000 -60 Level Indianapolis Center
08:28PM 40.0047 -85.4644 254° West 168 193 7,900 -300 Descending Indianapolis Center
08:29PM 39.9917 -85.5256 254° West 174 200 7,400 -540 Descending Indianapolis Center
08:30PM 39.9764 -85.6044 256° West 182 209 6,800 -540 Descending Indianapolis Center
08:31PM 39.9625 -85.6708 255° West 187 215 6,300 -540 Descending Indianapolis Center
08:32PM 39.9486 -85.7372 255° West 190 219 5,800 -540 Descending Indianapolis Center
08:33PM 39.9339 -85.8064 255° West 194 223 5,200 -600 Descending Indianapolis Center
08:34PM 39.9183 -85.8756 254° West 197 227 4,700 -480 Descending Indianapolis Center
08:35PM 39.9044 -85.9442 255° West 197 227 4,300 -360 Descending Indianapolis Center
08:36PM 39.8875 -86.0239 255° West 199 229 4,000 -300 Descending Indianapolis Center